Weather reports worldwide

Advertisment
Herwijnen aws, Netherlands (6356): temperature & dewpoint: 14.10.2019 04:00:00 - 20.10.2019 04:00:00 (CEST)Herwijnen aws, Netherlands (6356): temperature 5cm: 14.10.2019 04:00:00 - 20.10.2019 04:00:00 (CEST)Herwijnen aws, Netherlands (6356): wind speed & gusts: 14.10.2019 04:00:00 - 20.10.2019 04:00:00 (CEST)Herwijnen aws, Netherlands (6356): wind direction: 14.10.2019 04:00:00 - 20.10.2019 04:00:00 (CEST)Herwijnen aws, Netherlands (6356): reduced air pressure: 14.10.2019 04:00:00 - 20.10.2019 04:00:00 (CEST)Herwijnen aws, Netherlands (6356): precipitation: 14.10.2019 04:00:00 - 20.10.2019 04:00:00 (CEST)
Date & Time tt [°C] td [°C] tt 5cm [°C] ff [km/h] ff [kn] fx [km/h] fx [kn] dd ppp [hPa] rr [mm]
20.10.2019 04:00:00 10,1 9,6 9,5 8 4 - - S 1006,6 -
20.10.2019 03:00:00 10,3 9,6 9,4 7 4 14 8 SSW 1006,7 0,0
20.10.2019 02:00:00 10,6 9,7 9,8 7 4 14 8 S 1006,7 0,0
20.10.2019 01:00:00 10,4 9,4 9,6 11 6 18 10 SSW 1006,6 0,0
20.10.2019 00:00:00 9,7 9,0 8,1 7 4 14 8 S 1006,2 0,0
19.10.2019 23:00:00 10,5 9,4 9,3 11 6 18 10 S 1005,8 0,0
19.10.2019 22:00:00 11,1 9,7 10,1 11 6 18 10 S 1005,4 0,0
19.10.2019 21:00:00 11,3 9,6 9,9 7 4 18 10 S 1005,0 0,0
19.10.2019 20:00:00 11,8 9,5 10,2 7 4 18 10 S 1004,7 0,0
19.10.2019 19:00:00 12,3 9,6 11,1 11 6 22 12 S 1004,3 0,0
19.10.2019 18:00:00 12,9 10,0 12,0 11 6 25 14 SSW 1003,9 0,0
19.10.2019 17:00:00 13,7 10,2 13,4 18 10 32 18 SSW 1003,5 0,0
19.10.2019 16:00:00 13,7 10,3 13,6 18 10 29 16 SSW 1003,4 0,0
19.10.2019 15:00:00 13,9 10,8 13,9 14 8 32 18 S 1003,3 0,0
19.10.2019 14:00:00 14,0 10,1 14,3 18 10 32 18 SSW 1003,0 0,0
19.10.2019 13:00:00 13,7 9,9 14,3 14 8 25 14 S 1003,3 0,0
19.10.2019 12:00:00 13,5 11,2 14,6 18 10 29 16 SSW 1003,1 0,0
19.10.2019 11:00:00 12,3 11,5 12,2 14 8 22 12 SSW 1003,4 0,6
19.10.2019 10:00:00 11,4 11,3 11,2 7 4 22 12 SW 1003,3 3,4
19.10.2019 09:00:00 11,4 11,0 11,1 18 10 25 14 S 1003,0 0,7
19.10.2019 08:00:00 11,2 10,8 11,0 18 10 29 16 S 1003,0 0,6
19.10.2019 07:00:00 11,5 10,5 11,1 18 10 32 18 S 1003,4 0,1
19.10.2019 06:00:00 11,7 9,6 11,0 18 10 25 14 S 1003,5 0,0
19.10.2019 05:00:00 11,0 9,0 10,1 18 10 25 14 S 1003,8 0,0
19.10.2019 04:00:00 11,0 8,7 10,0 18 10 25 14 S 1004,1 0,0
19.10.2019 03:00:00 10,1 7,9 9,2 14 8 22 12 S 1004,3 0,0
19.10.2019 02:00:00 10,4 7,8 9,5 14 8 25 14 S 1004,8 0,0
19.10.2019 01:00:00 11,2 7,7 10,1 18 10 25 14 S 1005,0 0,0
19.10.2019 00:00:00 11,2 7,4 10,0 14 8 25 14 S 1005,2 0,0
18.10.2019 23:00:00 11,2 7,3 10,0 14 8 29 16 S 1005,6 0,0
18.10.2019 22:00:00 11,6 7,6 10,5 18 10 36 19 S 1005,6 0,0
18.10.2019 21:00:00 11,4 8,0 10,0 18 10 32 18 S 1005,8 0,0
18.10.2019 20:00:00 11,1 8,4 9,2 18 10 29 16 S 1005,8 0,0
18.10.2019 19:00:00 10,8 8,0 10,0 18 10 61 33 SSW 1005,6 0,9
18.10.2019 18:00:00 12,0 8,2 11,3 40 21 61 33 SW 1005,1 0,0
18.10.2019 17:00:00 13,2 7,6 12,5 29 16 54 29 SW 1004,9 0,0
18.10.2019 16:00:00 13,2 8,2 12,8 32 18 58 31 SW 1004,5 0,0
18.10.2019 15:00:00 13,8 8,0 13,6 40 21 65 35 SW 1003,5 0,0
18.10.2019 14:00:00 13,2 8,2 13,0 40 21 61 33 SW 1002,6 0,0
18.10.2019 13:00:00 13,0 8,0 12,5 36 19 61 33 SW 1002,0 0,0
18.10.2019 12:00:00 13,5 10,0 13,2 25 14 43 23 SSW 1001,5 0,1
18.10.2019 11:00:00 13,4 11,1 12,8 29 16 47 25 S 1002,0 0,2
18.10.2019 10:00:00 13,5 12,1 13,1 22 12 36 19 SSE 1002,1 0,0
18.10.2019 09:00:00 12,6 11,9 12,2 18 10 25 14 SSE 1003,0 0,0
18.10.2019 08:00:00 12,2 11,7 11,5 14 8 29 16 SSE 1003,3 0,0
18.10.2019 07:00:00 12,5 11,8 11,9 14 8 25 14 S 1004,1 0,0
18.10.2019 06:00:00 12,5 11,9 12,0 14 8 22 12 S 1004,7 0,0
18.10.2019 05:00:00 12,6 12,1 12,3 14 8 25 14 S 1005,2 0,0
18.10.2019 04:00:00 12,7 12,1 12,1 14 8 25 14 S 1005,9 0,0
18.10.2019 03:00:00 12,2 11,8 11,7 14 8 22 12 SSE 1006,6 0,0
18.10.2019 02:00:00 12,4 12,1 12,0 11 6 22 12 SSE 1007,2 0,2
18.10.2019 01:00:00 11,9 11,8 11,4 11 6 22 12 SSE 1007,5 0,0
18.10.2019 00:00:00 11,5 11,4 11,0 11 6 18 10 SSE 1008,0 0,0
17.10.2019 23:00:00 11,7 11,6 11,5 14 8 22 12 S 1008,6 0,0
17.10.2019 22:00:00 10,9 10,8 9,1 11 6 14 8 SSE 1008,5 0,0
17.10.2019 21:00:00 11,3 11,2 10,3 11 6 14 8 SSE 1008,7 0,0
17.10.2019 20:00:00 11,6 11,2 9,8 7 4 11 6 SE 1008,7 0,0
17.10.2019 19:00:00 12,9 11,3 12,2 11 6 18 10 SSE 1008,7 0,0
17.10.2019 18:00:00 15,0 10,7 14,8 11 6 14 8 S 1008,6 0,0
17.10.2019 17:00:00 14,9 11,0 14,4 4 2 18 10 SSW 1009,0 0,0
17.10.2019 16:00:00 15,3 10,3 15,3 11 6 25 14 SSW 1009,3 0,0
17.10.2019 15:00:00 16,1 10,8 16,5 14 8 25 14 SSW 1009,7 0,0
17.10.2019 14:00:00 15,0 11,1 15,1 14 8 25 14 SSW 1010,0 0,0
17.10.2019 13:00:00 15,2 11,4 16,1 14 8 25 14 SSW 1010,3 0,0
17.10.2019 12:00:00 15,0 12,8 15,1 14 8 22 12 SW 1010,3 0,0
17.10.2019 11:00:00 13,6 12,2 14,0 14 8 18 10 SSW 1010,0 0,0
17.10.2019 10:00:00 13,1 12,6 13,1 11 6 14 8 SW 1009,9 0,0
17.10.2019 09:00:00 12,7 12,4 12,5 11 6 14 8 SW 1009,4 0,0
17.10.2019 08:00:00 12,4 12,3 12,1 7 4 14 8 W 1008,4 0,0
17.10.2019 07:00:00 12,7 12,6 12,6 11 6 22 12 W 1007,7 0,0
17.10.2019 06:00:00 13,1 13,0 13,0 14 8 25 14 W 1007,2 0,1
17.10.2019 05:00:00 13,9 13,9 13,8 14 8 25 14 SSW 1006,5 0,1
17.10.2019 04:00:00 13,8 13,7 13,7 14 8 25 14 SSW 1006,3 0,1
17.10.2019 03:00:00 13,7 13,6 13,6 14 8 29 16 S 1006,2 0,1
17.10.2019 02:00:00 13,8 13,6 13,6 18 10 29 16 S 1006,1 0,3
17.10.2019 01:00:00 14,0 13,8 13,8 14 8 29 16 S 1006,0 1,6
17.10.2019 00:00:00 14,1 14,0 13,9 18 10 32 18 S 1006,2 1,0
16.10.2019 23:00:00 14,2 14,0 14,0 18 10 32 18 S 1006,3 0,2
16.10.2019 22:00:00 14,3 14,0 14,0 18 10 29 16 S 1006,1 2,3
16.10.2019 21:00:00 14,3 14,0 14,0 18 10 29 16 S 1006,1 2,4
16.10.2019 20:00:00 14,2 14,0 14,0 14 8 29 16 S 1006,2 0,9
16.10.2019 19:00:00 14,1 13,9 14,0 14 8 29 16 S 1006,1 2,0
16.10.2019 18:00:00 14,3 13,9 14,1 18 10 32 18 S 1006,0 0,3
16.10.2019 17:00:00 14,8 13,6 14,6 18 10 36 19 SSW 1006,0 0,0
16.10.2019 16:00:00 14,4 13,4 14,4 22 12 32 18 S 1006,2 0,0
16.10.2019 15:00:00 14,0 13,0 14,0 18 10 32 18 S 1006,3 0,0
16.10.2019 14:00:00 13,8 12,6 14,0 18 10 36 19 S 1006,7 0,0
16.10.2019 13:00:00 14,2 11,7 14,3 22 12 36 19 S 1007,2 0,0
16.10.2019 12:00:00 14,1 11,5 14,4 22 12 40 21 S 1007,6 0,0
16.10.2019 11:00:00 13,6 11,3 14,1 18 10 29 16 S 1008,1 0,0
16.10.2019 10:00:00 12,2 10,8 12,0 18 10 25 14 S 1008,4 0,0
16.10.2019 09:00:00 10,9 10,2 10,1 14 8 18 10 S 1008,4 0,0
16.10.2019 08:00:00 10,4 9,9 9,5 11 6 18 10 S 1008,2 0,0
16.10.2019 07:00:00 10,3 9,8 9,5 11 6 22 12 S 1008,1 0,0
16.10.2019 06:00:00 10,8 9,9 9,9 14 8 22 12 SSW 1008,2 0,0
16.10.2019 05:00:00 11,2 10,1 10,1 11 6 22 12 S 1008,2 0,0
16.10.2019 04:00:00 12,1 10,8 11,4 14 8 25 14 SSW 1008,3 0,0
16.10.2019 03:00:00 12,5 11,1 11,9 11 6 18 10 SSW 1008,4 0,0
16.10.2019 02:00:00 12,5 11,4 12,0 11 6 18 10 SSW 1008,2 0,0
16.10.2019 01:00:00 12,7 11,8 11,9 7 4 14 8 S 1008,2 0,0
16.10.2019 00:00:00 13,0 12,3 12,5 7 4 14 8 SSW 1008,0 0,0
15.10.2019 23:00:00 13,3 12,6 12,9 7 4 18 10 SW 1008,0 0,0
15.10.2019 22:00:00 13,9 13,5 13,7 11 6 14 8 WSW 1007,8 0,0
15.10.2019 21:00:00 13,9 13,3 13,5 11 6 14 8 SSW 1007,1 0,1
15.10.2019 20:00:00 14,1 13,3 13,7 7 4 14 8 SSW 1007,0 0,0
15.10.2019 19:00:00 14,5 13,4 14,1 7 4 11 6 S 1006,3 0,0
15.10.2019 18:00:00 14,7 13,0 14,3 11 6 18 10 SW 1006,0 0,1
15.10.2019 17:00:00 15,7 13,6 15,4 11 6 18 10 SSW 1005,9 0,0
15.10.2019 16:00:00 16,2 13,2 16,3 14 8 18 10 SSW 1005,9 0,0
15.10.2019 15:00:00 16,3 13,0 16,5 14 8 25 14 SSW 1005,9 0,0
15.10.2019 14:00:00 17,1 14,7 17,2 11 6 22 12 SSW 1005,9 0,0
15.10.2019 13:00:00 16,0 14,1 - 11 6 22 12 SW 1006,4 0,0
15.10.2019 12:00:00 16,1 14,2 16,6 18 10 25 14 SW 1006,0 0,0
15.10.2019 11:00:00 15,2 14,4 15,0 11 6 18 10 SSW 1006,0 0,0
15.10.2019 10:00:00 15,1 13,9 14,9 11 6 18 10 SSW 1005,9 0,0
15.10.2019 09:00:00 15,1 13,8 14,5 11 6 14 8 S 1005,3 0,0
15.10.2019 08:00:00 14,4 13,2 14,0 7 4 18 10 S 1005,0 0,0
15.10.2019 07:00:00 15,1 13,2 14,2 11 6 14 8 SSW 1004,7 0,0
15.10.2019 06:00:00 15,6 13,2 14,6 11 6 18 10 SSW 1004,7 0,0
15.10.2019 05:00:00 15,7 13,4 14,6 11 6 18 10 SSW 1004,7 0,0
15.10.2019 04:00:00 15,6 13,5 14,3 11 6 14 8 S 1004,6 0,0
15.10.2019 03:00:00 16,1 14,0 15,2 11 6 22 12 S 1004,9 0,0
15.10.2019 02:00:00 16,7 14,5 15,6 14 8 22 12 SSE 1004,7 0,0
15.10.2019 01:00:00 16,1 14,5 14,7 11 6 18 10 ESE 1004,4 0,0
15.10.2019 00:00:00 16,0 14,7 14,9 7 4 14 8 ESE 1004,7 0,1
14.10.2019 23:00:00 17,9 15,6 16,8 7 4 18 10 SSE 1005,6 0,0
14.10.2019 22:00:00 17,5 15,5 16,5 11 6 18 10 ESE 1005,4 0,0
14.10.2019 21:00:00 17,4 15,8 16,4 14 8 18 10 ESE 1005,8 0,0
14.10.2019 20:00:00 17,5 16,0 16,4 11 6 14 8 E 1006,3 0,0
14.10.2019 19:00:00 18,0 15,9 17,3 7 4 14 8 E 1006,6 0,0
14.10.2019 18:00:00 18,9 16,2 18,3 11 6 18 10 E 1006,2 0,0
14.10.2019 17:00:00 19,0 16,3 18,7 11 6 25 14 E 1007,1 0,0
14.10.2019 16:00:00 18,4 15,9 18,4 18 10 32 18 E 1007,7 0,0
14.10.2019 15:00:00 17,6 15,1 17,9 18 10 29 16 E 1008,8 0,0
14.10.2019 14:00:00 16,0 14,7 16,4 18 10 25 14 E 1009,8 0,0
14.10.2019 13:00:00 14,9 13,8 14,7 18 10 29 16 E 1011,1 1,2
14.10.2019 12:00:00 15,4 13,4 15,6 18 10 29 16 E 1012,0 0,0
14.10.2019 11:00:00 14,5 13,6 14,8 18 10 25 14 E 1012,3 0,0
14.10.2019 10:00:00 13,4 13,3 13,4 7 4 11 6 E 1013,1 0,0
14.10.2019 09:00:00 12,5 12,5 12,2 4 2 7 4 NE 1013,1 0,0
14.10.2019 08:00:00 12,3 12,2 11,5 4 2 11 6 E 1013,1 0,0
14.10.2019 07:00:00 12,5 12,5 11,5 7 4 11 6 SSE 1013,2 0,0
14.10.2019 06:00:00 12,7 12,5 11,6 4 2 7 4 SSE 1012,8 0,0
14.10.2019 05:00:00 13,2 12,8 12,7 7 4 11 6 S 1012,8 0,0
14.10.2019 04:00:00 13,3 12,7 12,6 7 4 18 10 SW 1012,5 0,0

tt = temperature
td = dewpoint
tt 5cm = temperature 5cm
ff = wind speed
fx = gusts
dd = wind direction
ppp = reduced air pressure
rr = precipitation

Next stations